sensor_id;sensor_type;location;lat;lon;timestamp;temperature;humidity
53962;DHT22;39868;53.398;6.564;2023-02-28T00:01:07;8.10;76.40
53962;DHT22;39868;53.398;6.564;2023-02-28T00:03:34;8.10;76.40
53962;DHT22;39868;53.398;6.564;2023-02-28T00:06:06;8.10;76.30
53962;DHT22;39868;53.398;6.564;2023-02-28T00:08:33;8.10;76.30
53962;DHT22;39868;53.398;6.564;2023-02-28T00:11:08;8.10;76.30
53962;DHT22;39868;53.398;6.564;2023-02-28T00:13:38;8.10;76.30
53962;DHT22;39868;53.398;6.564;2023-02-28T00:16:07;8.10;76.20
53962;DHT22;39868;53.398;6.564;2023-02-28T00:18:37;8.10;76.10
53962;DHT22;39868;53.398;6.564;2023-02-28T00:21:05;8.10;76.10
53962;DHT22;39868;53.398;6.564;2023-02-28T00:23:33;8.10;76.10
53962;DHT22;39868;53.398;6.564;2023-02-28T00:26:01;8.10;76.00
53962;DHT22;39868;53.398;6.564;2023-02-28T00:28:29;8.00;76.00
53962;DHT22;39868;53.398;6.564;2023-02-28T00:30:58;8.00;76.00
53962;DHT22;39868;53.398;6.564;2023-02-28T00:33:28;8.00;76.00
53962;DHT22;39868;53.398;6.564;2023-02-28T00:36:05;8.00;76.10
53962;DHT22;39868;53.398;6.564;2023-02-28T00:38:36;7.90;76.00
53962;DHT22;39868;53.398;6.564;2023-02-28T00:41:04;7.90;76.00
53962;DHT22;39868;53.398;6.564;2023-02-28T00:43:33;7.90;76.00
53962;DHT22;39868;53.398;6.564;2023-02-28T00:46:02;7.90;76.00
53962;DHT22;39868;53.398;6.564;2023-02-28T00:48:30;7.90;76.00
53962;DHT22;39868;53.398;6.564;2023-02-28T00:50:57;7.90;76.10
53962;DHT22;39868;53.398;6.564;2023-02-28T00:53:25;7.90;76.10
53962;DHT22;39868;53.398;6.564;2023-02-28T00:55:52;7.90;76.10
53962;DHT22;39868;53.398;6.564;2023-02-28T00:58:20;7.90;76.10
53962;DHT22;39868;53.398;6.564;2023-02-28T01:00:47;7.90;76.10
53962;DHT22;39868;53.398;6.564;2023-02-28T01:03:17;7.90;76.20
53962;DHT22;39868;53.398;6.564;2023-02-28T01:05:46;7.90;76.20
53962;DHT22;39868;53.398;6.564;2023-02-28T01:08:14;7.90;76.20
53962;DHT22;39868;53.398;6.564;2023-02-28T01:10:41;7.90;76.10
53962;DHT22;39868;53.398;6.564;2023-02-28T01:13:09;7.90;76.10
53962;DHT22;39868;53.398;6.564;2023-02-28T01:15:37;7.90;76.10
53962;DHT22;39868;53.398;6.564;2023-02-28T01:18:05;8.00;76.10
53962;DHT22;39868;53.398;6.564;2023-02-28T01:20:32;7.90;76.00
53962;DHT22;39868;53.398;6.564;2023-02-28T01:23:00;7.90;76.10
53962;DHT22;39868;53.398;6.564;2023-02-28T01:25:28;7.90;76.10
53962;DHT22;39868;53.398;6.564;2023-02-28T01:27:55;7.90;76.10
53962;DHT22;39868;53.398;6.564;2023-02-28T01:30:23;7.90;76.10
53962;DHT22;39868;53.398;6.564;2023-02-28T01:32:50;7.90;76.00
53962;DHT22;39868;53.398;6.564;2023-02-28T01:35:20;7.90;76.10
53962;DHT22;39868;53.398;6.564;2023-02-28T01:37:47;7.90;76.10
53962;DHT22;39868;53.398;6.564;2023-02-28T01:40:15;7.90;76.10
53962;DHT22;39868;53.398;6.564;2023-02-28T01:42:46;7.90;76.10
53962;DHT22;39868;53.398;6.564;2023-02-28T01:45:27;7.90;76.20
53962;DHT22;39868;53.398;6.564;2023-02-28T01:47:58;8.00;76.30
53962;DHT22;39868;53.398;6.564;2023-02-28T01:50:31;8.00;76.30
53962;DHT22;39868;53.398;6.564;2023-02-28T01:53:03;8.00;76.30
53962;DHT22;39868;53.398;6.564;2023-02-28T01:55:32;8.00;76.30
53962;DHT22;39868;53.398;6.564;2023-02-28T01:58:02;8.10;76.30
53962;DHT22;39868;53.398;6.564;2023-02-28T02:00:31;8.00;76.10
53962;DHT22;39868;53.398;6.564;2023-02-28T02:03:05;8.00;76.10
53962;DHT22;39868;53.398;6.564;2023-02-28T02:05:37;8.00;76.20
53962;DHT22;39868;53.398;6.564;2023-02-28T02:08:12;8.00;76.20
53962;DHT22;39868;53.398;6.564;2023-02-28T02:10:45;8.00;76.20
53962;DHT22;39868;53.398;6.564;2023-02-28T02:19:00;8.00;76.30
53962;DHT22;39868;53.398;6.564;2023-02-28T02:24:34;8.00;76.20
53962;DHT22;39868;53.398;6.564;2023-02-28T02:36:14;8.10;76.40
53962;DHT22;39868;53.398;6.564;2023-02-28T02:44:04;8.10;76.50
53962;DHT22;39868;53.398;6.564;2023-02-28T02:46:37;8.10;76.50
53962;DHT22;39868;53.398;6.564;2023-02-28T02:49:11;8.10;76.50
53962;DHT22;39868;53.398;6.564;2023-02-28T02:51:41;8.10;76.50
53962;DHT22;39868;53.398;6.564;2023-02-28T02:54:21;8.10;76.50
53962;DHT22;39868;53.398;6.564;2023-02-28T02:56:50;8.10;76.60
53962;DHT22;39868;53.398;6.564;2023-02-28T02:59:21;8.20;76.60
53962;DHT22;39868;53.398;6.564;2023-02-28T03:01:57;8.10;76.60
53962;DHT22;39868;53.398;6.564;2023-02-28T03:04:30;8.20;76.50
53962;DHT22;39868;53.398;6.564;2023-02-28T03:06:59;8.20;76.60
53962;DHT22;39868;53.398;6.564;2023-02-28T03:09:27;8.20;76.50
53962;DHT22;39868;53.398;6.564;2023-02-28T03:11:56;8.20;76.60
53962;DHT22;39868;53.398;6.564;2023-02-28T03:22:49;8.20;76.20
53962;DHT22;39868;53.398;6.564;2023-02-28T03:25:41;8.30;76.50
53962;DHT22;39868;53.398;6.564;2023-02-28T03:32:08;8.30;76.60
53962;DHT22;39868;53.398;6.564;2023-02-28T03:36:48;8.30;76.70
53962;DHT22;39868;53.398;6.564;2023-02-28T03:39:27;8.30;76.70
53962;DHT22;39868;53.398;6.564;2023-02-28T03:42:14;8.30;76.80
53962;DHT22;39868;53.398;6.564;2023-02-28T03:45:00;8.40;77.00
53962;DHT22;39868;53.398;6.564;2023-02-28T03:47:37;8.40;77.00
53962;DHT22;39868;53.398;6.564;2023-02-28T03:52:44;8.40;77.10
53962;DHT22;39868;53.398;6.564;2023-02-28T03:55:14;8.40;77.10
53962;DHT22;39868;53.398;6.564;2023-02-28T03:57:59;8.40;77.10
53962;DHT22;39868;53.398;6.564;2023-02-28T04:00:40;8.40;77.00
53962;DHT22;39868;53.398;6.564;2023-02-28T04:03:08;8.40;77.00
53962;DHT22;39868;53.398;6.564;2023-02-28T04:05:53;8.40;76.90
53962;DHT22;39868;53.398;6.564;2023-02-28T04:08:22;8.40;77.00
53962;DHT22;39868;53.398;6.564;2023-02-28T04:11:29;8.40;76.90
53962;DHT22;39868;53.398;6.564;2023-02-28T04:13:59;8.40;76.90
53962;DHT22;39868;53.398;6.564;2023-02-28T04:16:26;8.40;76.80
53962;DHT22;39868;53.398;6.564;2023-02-28T04:19:05;8.40;76.80
53962;DHT22;39868;53.398;6.564;2023-02-28T04:21:35;8.40;76.80
53962;DHT22;39868;53.398;6.564;2023-02-28T04:24:03;8.40;76.80
53962;DHT22;39868;53.398;6.564;2023-02-28T04:26:35;8.40;76.80
53962;DHT22;39868;53.398;6.564;2023-02-28T04:29:04;8.40;76.80
53962;DHT22;39868;53.398;6.564;2023-02-28T04:31:33;8.40;77.30
53962;DHT22;39868;53.398;6.564;2023-02-28T04:34:01;8.40;76.80
53962;DHT22;39868;53.398;6.564;2023-02-28T04:36:29;8.40;76.80
53962;DHT22;39868;53.398;6.564;2023-02-28T04:38:56;8.50;76.90
53962;DHT22;39868;53.398;6.564;2023-02-28T04:41:24;8.50;77.00
53962;DHT22;39868;53.398;6.564;2023-02-28T04:43:52;8.50;77.00
53962;DHT22;39868;53.398;6.564;2023-02-28T04:46:22;8.50;77.00
53962;DHT22;39868;53.398;6.564;2023-02-28T04:48:50;8.50;77.00
53962;DHT22;39868;53.398;6.564;2023-02-28T04:51:18;8.50;77.00
53962;DHT22;39868;53.398;6.564;2023-02-28T04:53:47;8.50;76.90
53962;DHT22;39868;53.398;6.564;2023-02-28T04:56:17;8.40;76.80
53962;DHT22;39868;53.398;6.564;2023-02-28T04:58:45;8.40;76.70
53962;DHT22;39868;53.398;6.564;2023-02-28T05:01:24;8.40;76.60
53962;DHT22;39868;53.398;6.564;2023-02-28T05:03:54;8.40;76.60
53962;DHT22;39868;53.398;6.564;2023-02-28T05:06:23;8.30;76.50
53962;DHT22;39868;53.398;6.564;2023-02-28T05:08:52;8.30;76.40
53962;DHT22;39868;53.398;6.564;2023-02-28T05:11:30;8.20;76.40
53962;DHT22;39868;53.398;6.564;2023-02-28T05:14:07;8.20;76.50
53962;DHT22;39868;53.398;6.564;2023-02-28T05:16:36;8.10;76.30
53962;DHT22;39868;53.398;6.564;2023-02-28T05:19:03;8.10;76.30
53962;DHT22;39868;53.398;6.564;2023-02-28T05:21:33;8.00;76.30
53962;DHT22;39868;53.398;6.564;2023-02-28T05:24:03;8.00;76.40
53962;DHT22;39868;53.398;6.564;2023-02-28T05:26:35;7.90;76.40
53962;DHT22;39868;53.398;6.564;2023-02-28T05:29:03;7.90;76.40
53962;DHT22;39868;53.398;6.564;2023-02-28T05:31:32;7.90;76.40
53962;DHT22;39868;53.398;6.564;2023-02-28T05:34:00;7.80;76.40
53962;DHT22;39868;53.398;6.564;2023-02-28T05:36:28;7.80;76.40
53962;DHT22;39868;53.398;6.564;2023-02-28T05:38:55;7.80;76.50
53962;DHT22;39868;53.398;6.564;2023-02-28T05:41:23;7.70;76.50
53962;DHT22;39868;53.398;6.564;2023-02-28T05:43:51;7.70;76.50
53962;DHT22;39868;53.398;6.564;2023-02-28T05:46:18;7.70;76.60
53962;DHT22;39868;53.398;6.564;2023-02-28T05:48:47;7.70;76.60
53962;DHT22;39868;53.398;6.564;2023-02-28T05:51:15;7.70;76.70
53962;DHT22;39868;53.398;6.564;2023-02-28T05:53:42;7.60;76.60
53962;DHT22;39868;53.398;6.564;2023-02-28T05:56:09;7.60;76.60
53962;DHT22;39868;53.398;6.564;2023-02-28T05:58:37;7.60;76.70
53962;DHT22;39868;53.398;6.564;2023-02-28T06:03:50;7.60;77.00
53962;DHT22;39868;53.398;6.564;2023-02-28T06:06:17;7.50;76.70
53962;DHT22;39868;53.398;6.564;2023-02-28T06:08:45;7.50;76.80
53962;DHT22;39868;53.398;6.564;2023-02-28T06:11:12;7.50;76.90
53962;DHT22;39868;53.398;6.564;2023-02-28T06:13:40;7.50;76.90
53962;DHT22;39868;53.398;6.564;2023-02-28T06:16:10;7.50;76.90
53962;DHT22;39868;53.398;6.564;2023-02-28T06:18:38;7.40;77.10
53962;DHT22;39868;53.398;6.564;2023-02-28T06:21:05;7.40;77.00
53962;DHT22;39868;53.398;6.564;2023-02-28T06:23:33;7.40;76.90
53962;DHT22;39868;53.398;6.564;2023-02-28T06:26:00;7.40;76.90
53962;DHT22;39868;53.398;6.564;2023-02-28T06:28:27;7.30;76.90
53962;DHT22;39868;53.398;6.564;2023-02-28T06:30:55;7.30;77.00
53962;DHT22;39868;53.398;6.564;2023-02-28T06:33:22;7.20;76.90
53962;DHT22;39868;53.398;6.564;2023-02-28T06:35:51;7.20;76.90
53962;DHT22;39868;53.398;6.564;2023-02-28T06:38:19;7.20;76.90
53962;DHT22;39868;53.398;6.564;2023-02-28T06:40:53;7.20;76.90
53962;DHT22;39868;53.398;6.564;2023-02-28T06:43:21;7.20;77.00
53962;DHT22;39868;53.398;6.564;2023-02-28T06:45:49;7.20;77.00
53962;DHT22;39868;53.398;6.564;2023-02-28T06:48:16;7.10;77.00
53962;DHT22;39868;53.398;6.564;2023-02-28T06:50:44;7.10;77.00
53962;DHT22;39868;53.398;6.564;2023-02-28T06:53:12;7.10;77.10
53962;DHT22;39868;53.398;6.564;2023-02-28T06:55:39;7.10;77.10
53962;DHT22;39868;53.398;6.564;2023-02-28T06:58:07;7.10;77.10
53962;DHT22;39868;53.398;6.564;2023-02-28T07:00:51;7.10;77.20
53962;DHT22;39868;53.398;6.564;2023-02-28T07:03:19;7.10;77.30
53962;DHT22;39868;53.398;6.564;2023-02-28T07:05:46;7.10;77.30
53962;DHT22;39868;53.398;6.564;2023-02-28T07:08:14;7.10;77.40
53962;DHT22;39868;53.398;6.564;2023-02-28T07:10:41;7.10;77.40
53962;DHT22;39868;53.398;6.564;2023-02-28T07:13:09;7.00;77.40
53962;DHT22;39868;53.398;6.564;2023-02-28T07:15:37;7.10;77.50
53962;DHT22;39868;53.398;6.564;2023-02-28T07:18:08;7.00;77.50
53962;DHT22;39868;53.398;6.564;2023-02-28T07:20:36;7.00;77.60
53962;DHT22;39868;53.398;6.564;2023-02-28T07:23:03;7.00;77.50
53962;DHT22;39868;53.398;6.564;2023-02-28T07:25:31;7.00;77.40
53962;DHT22;39868;53.398;6.564;2023-02-28T07:27:58;6.90;77.50
53962;DHT22;39868;53.398;6.564;2023-02-28T07:30:26;7.00;77.60
53962;DHT22;39868;53.398;6.564;2023-02-28T07:32:53;7.00;77.60
53962;DHT22;39868;53.398;6.564;2023-02-28T07:35:23;6.90;77.60
53962;DHT22;39868;53.398;6.564;2023-02-28T07:37:50;6.90;77.70
53962;DHT22;39868;53.398;6.564;2023-02-28T07:40:18;6.90;77.70
53962;DHT22;39868;53.398;6.564;2023-02-28T07:42:46;6.90;77.70
53962;DHT22;39868;53.398;6.564;2023-02-28T07:45:16;6.90;77.80
53962;DHT22;39868;53.398;6.564;2023-02-28T07:47:44;6.90;77.80
53962;DHT22;39868;53.398;6.564;2023-02-28T07:50:14;6.90;77.80
53962;DHT22;39868;53.398;6.564;2023-02-28T07:52:41;6.90;77.90
53962;DHT22;39868;53.398;6.564;2023-02-28T07:55:10;7.00;78.00
53962;DHT22;39868;53.398;6.564;2023-02-28T07:57:37;7.00;78.00
53962;DHT22;39868;53.398;6.564;2023-02-28T08:00:07;7.00;78.00
53962;DHT22;39868;53.398;6.564;2023-02-28T08:02:42;7.00;78.00
53962;DHT22;39868;53.398;6.564;2023-02-28T08:05:09;7.00;78.00
53962;DHT22;39868;53.398;6.564;2023-02-28T08:07:37;7.00;78.10
53962;DHT22;39868;53.398;6.564;2023-02-28T08:10:05;7.10;78.20
53962;DHT22;39868;53.398;6.564;2023-02-28T08:12:33;7.10;78.20
53962;DHT22;39868;53.398;6.564;2023-02-28T08:15:00;7.10;78.20
53962;DHT22;39868;53.398;6.564;2023-02-28T08:17:28;7.10;78.30
53962;DHT22;39868;53.398;6.564;2023-02-28T08:19:55;7.20;78.30
53962;DHT22;39868;53.398;6.564;2023-02-28T08:22:22;7.20;78.10
53962;DHT22;39868;53.398;6.564;2023-02-28T08:24:50;7.20;78.00
53962;DHT22;39868;53.398;6.564;2023-02-28T08:27:17;7.20;78.00
53962;DHT22;39868;53.398;6.564;2023-02-28T08:29:45;7.30;78.00
53962;DHT22;39868;53.398;6.564;2023-02-28T08:32:12;7.30;78.00
53962;DHT22;39868;53.398;6.564;2023-02-28T08:34:55;7.40;78.00
53962;DHT22;39868;53.398;6.564;2023-02-28T08:37:22;7.40;77.90
53962;DHT22;39868;53.398;6.564;2023-02-28T08:39:50;7.40;77.90
53962;DHT22;39868;53.398;6.564;2023-02-28T08:42:22;7.40;77.80
53962;DHT22;39868;53.398;6.564;2023-02-28T08:44:50;7.50;77.80
53962;DHT22;39868;53.398;6.564;2023-02-28T08:47:17;7.50;77.80
53962;DHT22;39868;53.398;6.564;2023-02-28T08:49:44;7.60;77.80
53962;DHT22;39868;53.398;6.564;2023-02-28T08:52:12;7.60;77.60
53962;DHT22;39868;53.398;6.564;2023-02-28T08:54:39;7.70;77.60
53962;DHT22;39868;53.398;6.564;2023-02-28T08:57:07;7.70;77.60
53962;DHT22;39868;53.398;6.564;2023-02-28T08:59:34;7.70;77.60
53962;DHT22;39868;53.398;6.564;2023-02-28T09:02:02;7.80;77.60
53962;DHT22;39868;53.398;6.564;2023-02-28T09:04:29;7.80;77.50
53962;DHT22;39868;53.398;6.564;2023-02-28T09:06:58;7.80;77.50
53962;DHT22;39868;53.398;6.564;2023-02-28T09:09:25;7.90;77.60
53962;DHT22;39868;53.398;6.564;2023-02-28T09:11:55;7.90;77.70
53962;DHT22;39868;53.398;6.564;2023-02-28T09:14:24;8.00;77.70
53962;DHT22;39868;53.398;6.564;2023-02-28T09:16:51;8.10;77.70
53962;DHT22;39868;53.398;6.564;2023-02-28T09:19:19;8.10;77.70
53962;DHT22;39868;53.398;6.564;2023-02-28T09:21:46;8.20;77.60
53962;DHT22;39868;53.398;6.564;2023-02-28T09:24:13;8.20;77.60
53962;DHT22;39868;53.398;6.564;2023-02-28T09:26:42;8.40;77.70
53962;DHT22;39868;53.398;6.564;2023-02-28T09:29:30;8.40;77.50
53962;DHT22;39868;53.398;6.564;2023-02-28T09:31:58;8.50;77.50
53962;DHT22;39868;53.398;6.564;2023-02-28T09:34:27;8.60;77.40
53962;DHT22;39868;53.398;6.564;2023-02-28T09:36:58;8.60;77.10
53962;DHT22;39868;53.398;6.564;2023-02-28T09:39:25;8.70;77.10
53962;DHT22;39868;53.398;6.564;2023-02-28T09:41:55;8.80;77.00
53962;DHT22;39868;53.398;6.564;2023-02-28T09:47:31;8.90;76.90
53962;DHT22;39868;53.398;6.564;2023-02-28T09:49:57;9.00;76.80
53962;DHT22;39868;53.398;6.564;2023-02-28T09:52:29;9.00;76.60
53962;DHT22;39868;53.398;6.564;2023-02-28T09:57:47;9.20;76.20
53962;DHT22;39868;53.398;6.564;2023-02-28T10:05:43;9.40;76.10
53962;DHT22;39868;53.398;6.564;2023-02-28T10:08:18;9.50;76.10
53962;DHT22;39868;53.398;6.564;2023-02-28T10:10:55;9.60;76.00
53962;DHT22;39868;53.398;6.564;2023-02-28T10:13:34;9.60;75.80
53962;DHT22;39868;53.398;6.564;2023-02-28T10:16:08;9.70;75.50
53962;DHT22;39868;53.398;6.564;2023-02-28T10:18:46;9.70;75.40
53962;DHT22;39868;53.398;6.564;2023-02-28T10:24:03;9.90;74.90
53962;DHT22;39868;53.398;6.564;2023-02-28T10:26:32;9.90;74.60
53962;DHT22;39868;53.398;6.564;2023-02-28T10:29:00;10.00;74.70
53962;DHT22;39868;53.398;6.564;2023-02-28T10:31:27;10.00;74.70
53962;DHT22;39868;53.398;6.564;2023-02-28T10:33:55;10.10;74.80
53962;DHT22;39868;53.398;6.564;2023-02-28T10:36:23;10.20;74.80
53962;DHT22;39868;53.398;6.564;2023-02-28T10:38:56;10.20;74.50
53962;DHT22;39868;53.398;6.564;2023-02-28T10:41:31;10.30;74.00
53962;DHT22;39868;53.398;6.564;2023-02-28T10:44:22;10.30;74.10
53962;DHT22;39868;53.398;6.564;2023-02-28T10:46:52;10.40;73.70
53962;DHT22;39868;53.398;6.564;2023-02-28T10:49:24;10.40;73.40
53962;DHT22;39868;53.398;6.564;2023-02-28T10:51:56;10.50;73.30
53962;DHT22;39868;53.398;6.564;2023-02-28T10:54:32;10.50;73.50
53962;DHT22;39868;53.398;6.564;2023-02-28T10:57:23;10.50;73.30
53962;DHT22;39868;53.398;6.564;2023-02-28T11:00:20;10.60;73.30
53962;DHT22;39868;53.398;6.564;2023-02-28T11:02:52;10.60;73.30
53962;DHT22;39868;53.398;6.564;2023-02-28T11:05:32;10.70;73.40
53962;DHT22;39868;53.398;6.564;2023-02-28T11:08:17;10.70;73.30
53962;DHT22;39868;53.398;6.564;2023-02-28T11:10:57;10.70;73.00
53962;DHT22;39868;53.398;6.564;2023-02-28T11:13:29;10.80;73.20
53962;DHT22;39868;53.398;6.564;2023-02-28T11:16:04;10.90;73.20
53962;DHT22;39868;53.398;6.564;2023-02-28T11:21:06;11.00;72.70
53962;DHT22;39868;53.398;6.564;2023-02-28T11:23:36;11.10;72.60
53962;DHT22;39868;53.398;6.564;2023-02-28T11:26:04;11.10;72.30
53962;DHT22;39868;53.398;6.564;2023-02-28T11:28:34;11.20;71.80
53962;DHT22;39868;53.398;6.564;2023-02-28T11:31:06;11.20;71.80
53962;DHT22;39868;53.398;6.564;2023-02-28T11:33:54;11.30;71.70
53962;DHT22;39868;53.398;6.564;2023-02-28T11:38:59;11.40;71.20
53962;DHT22;39868;53.398;6.564;2023-02-28T11:41:52;11.50;71.10
53962;DHT22;39868;53.398;6.564;2023-02-28T11:44:29;11.50;71.30
53962;DHT22;39868;53.398;6.564;2023-02-28T11:52:53;11.80;70.70
53962;DHT22;39868;53.398;6.564;2023-02-28T12:03:22;12.10;69.40
53962;DHT22;39868;53.398;6.564;2023-02-28T12:06:20;12.20;69.60
53962;DHT22;39868;53.398;6.564;2023-02-28T12:09:10;12.20;69.30
53962;DHT22;39868;53.398;6.564;2023-02-28T12:11:53;12.30;69.20
53962;DHT22;39868;53.398;6.564;2023-02-28T12:26:02;12.30;68.70
53962;DHT22;39868;53.398;6.564;2023-02-28T12:28:46;12.30;68.40
53962;DHT22;39868;53.398;6.564;2023-02-28T12:31:23;12.30;68.40
53962;DHT22;39868;53.398;6.564;2023-02-28T12:33:54;12.30;68.80
53962;DHT22;39868;53.398;6.564;2023-02-28T12:36:22;12.30;68.00
53962;DHT22;39868;53.398;6.564;2023-02-28T12:44:27;12.40;67.80
53962;DHT22;39868;53.398;6.564;2023-02-28T12:46:59;12.40;67.70
53962;DHT22;39868;53.398;6.564;2023-02-28T12:49:41;12.40;68.50
53962;DHT22;39868;53.398;6.564;2023-02-28T12:52:12;12.40;67.90
53962;DHT22;39868;53.398;6.564;2023-02-28T12:57:33;12.40;67.60
53962;DHT22;39868;53.398;6.564;2023-02-28T13:00:14;12.40;67.60
53962;DHT22;39868;53.398;6.564;2023-02-28T13:03:24;12.40;67.20
53962;DHT22;39868;53.398;6.564;2023-02-28T13:06:20;12.50;67.40
53962;DHT22;39868;53.398;6.564;2023-02-28T13:14:24;12.60;68.00
53962;DHT22;39868;53.398;6.564;2023-02-28T13:17:09;12.60;67.50
53962;DHT22;39868;53.398;6.564;2023-02-28T13:27:50;12.60;65.30
53962;DHT22;39868;53.398;6.564;2023-02-28T13:33:24;12.50;64.60
53962;DHT22;39868;53.398;6.564;2023-02-28T13:38:44;12.40;63.80
53962;DHT22;39868;53.398;6.564;2023-02-28T13:44:07;12.10;63.30
53962;DHT22;39868;53.398;6.564;2023-02-28T14:00:23;11.00;65.60
53962;DHT22;39868;53.398;6.564;2023-02-28T14:03:14;10.80;65.50
53962;DHT22;39868;53.398;6.564;2023-02-28T14:05:44;10.60;66.00
53962;DHT22;39868;53.398;6.564;2023-02-28T14:08:21;10.50;66.30
53962;DHT22;39868;53.398;6.564;2023-02-28T14:11:02;10.50;66.90
53962;DHT22;39868;53.398;6.564;2023-02-28T14:16:24;10.50;67.70
53962;DHT22;39868;53.398;6.564;2023-02-28T14:29:56;10.70;67.70
53962;DHT22;39868;53.398;6.564;2023-02-28T14:32:40;10.70;67.80
53962;DHT22;39868;53.398;6.564;2023-02-28T14:35:35;10.80;67.30
53962;DHT22;39868;53.398;6.564;2023-02-28T14:38:06;10.80;67.30
53962;DHT22;39868;53.398;6.564;2023-02-28T14:40:40;10.90;67.20
53962;DHT22;39868;53.398;6.564;2023-02-28T14:43:21;11.00;66.80
53962;DHT22;39868;53.398;6.564;2023-02-28T14:45:51;11.10;66.90
53962;DHT22;39868;53.398;6.564;2023-02-28T14:48:19;11.10;66.20
53962;DHT22;39868;53.398;6.564;2023-02-28T14:50:58;11.20;66.20
53962;DHT22;39868;53.398;6.564;2023-02-28T14:53:36;11.20;66.00
53962;DHT22;39868;53.398;6.564;2023-02-28T14:56:04;11.20;65.90
53962;DHT22;39868;53.398;6.564;2023-02-28T14:58:33;11.20;65.50
53962;DHT22;39868;53.398;6.564;2023-02-28T15:01:03;11.20;65.50
53962;DHT22;39868;53.398;6.564;2023-02-28T15:03:35;11.40;66.20
53962;DHT22;39868;53.398;6.564;2023-02-28T15:06:12;11.40;65.10
53962;DHT22;39868;53.398;6.564;2023-02-28T15:08:40;11.40;65.20
53962;DHT22;39868;53.398;6.564;2023-02-28T15:11:18;11.40;65.30
53962;DHT22;39868;53.398;6.564;2023-02-28T15:13:50;11.40;65.00
53962;DHT22;39868;53.398;6.564;2023-02-28T15:16:37;11.40;64.50
53962;DHT22;39868;53.398;6.564;2023-02-28T15:21:43;11.50;65.40
53962;DHT22;39868;53.398;6.564;2023-02-28T15:26:45;11.80;65.50
53962;DHT22;39868;53.398;6.564;2023-02-28T15:29:21;11.90;65.10
53962;DHT22;39868;53.398;6.564;2023-02-28T15:31:53;12.10;64.30
53962;DHT22;39868;53.398;6.564;2023-02-28T15:34:42;12.30;64.30
53962;DHT22;39868;53.398;6.564;2023-02-28T15:40:16;12.50;63.20
53962;DHT22;39868;53.398;6.564;2023-02-28T15:43:06;12.60;62.80
53962;DHT22;39868;53.398;6.564;2023-02-28T15:45:37;12.70;62.40
53962;DHT22;39868;53.398;6.564;2023-02-28T15:51:19;12.70;61.50
53962;DHT22;39868;53.398;6.564;2023-02-28T15:54:07;12.60;61.40
53962;DHT22;39868;53.398;6.564;2023-02-28T15:56:43;12.60;61.50
53962;DHT22;39868;53.398;6.564;2023-02-28T15:59:20;12.50;61.40
53962;DHT22;39868;53.398;6.564;2023-02-28T16:02:03;12.40;61.70
53962;DHT22;39868;53.398;6.564;2023-02-28T16:04:36;12.30;61.40
53962;DHT22;39868;53.398;6.564;2023-02-28T16:07:05;12.30;61.30
53962;DHT22;39868;53.398;6.564;2023-02-28T16:09:33;12.20;61.80
53962;DHT22;39868;53.398;6.564;2023-02-28T16:12:04;12.10;61.80
53962;DHT22;39868;53.398;6.564;2023-02-28T16:14:32;12.00;62.20
53962;DHT22;39868;53.398;6.564;2023-02-28T16:17:35;11.90;62.50
53962;DHT22;39868;53.398;6.564;2023-02-28T16:20:13;11.90;62.80
53962;DHT22;39868;53.398;6.564;2023-02-28T16:22:42;11.70;63.10
53962;DHT22;39868;53.398;6.564;2023-02-28T16:25:17;11.60;63.40
53962;DHT22;39868;53.398;6.564;2023-02-28T16:27:48;11.50;63.50
53962;DHT22;39868;53.398;6.564;2023-02-28T16:30:26;11.50;63.60
53962;DHT22;39868;53.398;6.564;2023-02-28T16:32:55;11.30;63.60
53962;DHT22;39868;53.398;6.564;2023-02-28T16:35:23;11.20;63.70
53962;DHT22;39868;53.398;6.564;2023-02-28T16:37:51;11.10;63.90
53962;DHT22;39868;53.398;6.564;2023-02-28T16:40:21;11.00;64.00
53962;DHT22;39868;53.398;6.564;2023-02-28T16:42:52;10.80;64.20
53962;DHT22;39868;53.398;6.564;2023-02-28T16:45:23;10.70;64.30
53962;DHT22;39868;53.398;6.564;2023-02-28T16:47:51;10.60;64.50
53962;DHT22;39868;53.398;6.564;2023-02-28T16:50:23;10.50;64.70
53962;DHT22;39868;53.398;6.564;2023-02-28T16:52:51;10.30;65.00
53962;DHT22;39868;53.398;6.564;2023-02-28T16:55:25;10.20;65.20
53962;DHT22;39868;53.398;6.564;2023-02-28T16:57:56;10.00;65.40
53962;DHT22;39868;53.398;6.564;2023-02-28T17:00:24;9.90;65.70
53962;DHT22;39868;53.398;6.564;2023-02-28T17:02:52;9.80;66.00
53962;DHT22;39868;53.398;6.564;2023-02-28T17:05:20;9.60;66.10
53962;DHT22;39868;53.398;6.564;2023-02-28T17:07:48;9.50;66.30
53962;DHT22;39868;53.398;6.564;2023-02-28T17:10:21;9.30;66.50
53962;DHT22;39868;53.398;6.564;2023-02-28T17:12:49;9.20;66.70
53962;DHT22;39868;53.398;6.564;2023-02-28T17:15:18;9.10;67.00
53962;DHT22;39868;53.398;6.564;2023-02-28T17:17:47;9.00;67.50
53962;DHT22;39868;53.398;6.564;2023-02-28T17:20:20;8.90;67.70
53962;DHT22;39868;53.398;6.564;2023-02-28T17:22:56;8.70;67.90
53962;DHT22;39868;53.398;6.564;2023-02-28T17:25:24;8.60;68.10
53962;DHT22;39868;53.398;6.564;2023-02-28T17:27:51;8.50;68.20
53962;DHT22;39868;53.398;6.564;2023-02-28T17:30:24;8.50;68.40
53962;DHT22;39868;53.398;6.564;2023-02-28T17:32:55;8.30;68.40
53962;DHT22;39868;53.398;6.564;2023-02-28T17:35:23;8.30;68.50
53962;DHT22;39868;53.398;6.564;2023-02-28T17:37:51;8.20;68.80
53962;DHT22;39868;53.398;6.564;2023-02-28T17:40:20;8.10;69.30
53962;DHT22;39868;53.398;6.564;2023-02-28T17:42:48;8.00;70.10
53962;DHT22;39868;53.398;6.564;2023-02-28T17:45:16;8.00;69.70
53962;DHT22;39868;53.398;6.564;2023-02-28T17:47:47;7.90;69.80
53962;DHT22;39868;53.398;6.564;2023-02-28T17:50:17;7.80;70.00
53962;DHT22;39868;53.398;6.564;2023-02-28T17:52:44;7.80;70.30
53962;DHT22;39868;53.398;6.564;2023-02-28T17:55:12;7.70;70.50
53962;DHT22;39868;53.398;6.564;2023-02-28T17:57:40;7.70;70.70
53962;DHT22;39868;53.398;6.564;2023-02-28T18:00:12;7.60;71.00
53962;DHT22;39868;53.398;6.564;2023-02-28T18:02:41;7.50;71.00
53962;DHT22;39868;53.398;6.564;2023-02-28T18:05:10;7.50;71.10
53962;DHT22;39868;53.398;6.564;2023-02-28T18:07:38;7.40;71.20
53962;DHT22;39868;53.398;6.564;2023-02-28T18:10:11;7.40;71.20
53962;DHT22;39868;53.398;6.564;2023-02-28T18:12:40;7.30;71.40
53962;DHT22;39868;53.398;6.564;2023-02-28T18:15:08;7.30;71.50
53962;DHT22;39868;53.398;6.564;2023-02-28T18:17:35;7.20;71.80
53962;DHT22;39868;53.398;6.564;2023-02-28T18:20:03;7.20;72.00
53962;DHT22;39868;53.398;6.564;2023-02-28T18:22:31;7.20;72.30
53962;DHT22;39868;53.398;6.564;2023-02-28T18:24:59;7.10;72.40
53962;DHT22;39868;53.398;6.564;2023-02-28T18:27:26;7.10;72.40
53962;DHT22;39868;53.398;6.564;2023-02-28T18:29:54;7.00;72.50
53962;DHT22;39868;53.398;6.564;2023-02-28T18:32:21;7.00;72.50
53962;DHT22;39868;53.398;6.564;2023-02-28T18:34:48;6.90;72.60
53962;DHT22;39868;53.398;6.564;2023-02-28T18:37:16;6.90;72.20
53962;DHT22;39868;53.398;6.564;2023-02-28T18:39:44;6.80;71.90
53962;DHT22;39868;53.398;6.564;2023-02-28T18:42:12;6.80;71.70
53962;DHT22;39868;53.398;6.564;2023-02-28T18:44:39;6.70;71.60
53962;DHT22;39868;53.398;6.564;2023-02-28T18:47:07;6.80;71.60